Big Bear Station Historical Data
Daily Summary for February 19, 2017 Units:  English    Metric   Both
« Previous Day
Next Day »
Daily Weekly Monthly Yearly Custom
  High: Low: Average:
Temperature: 39.7 °F 29.1 °F 34 °F
Dew Point: 36.1 °F 28.4 °F 32.6 °F
Humidity: 99 % 85 % 95 %
Wind Speed: 5.8 mph 0.0 mph 0.6 mph
Wind Gust: -999.0 mph - -
Wind:- - West
Pressure: 30.13 in 29.80 in -
Precipitation: 2.22 in    
Historical Graphs
 
 
Tabular Data for February 19, 2017
Time Temperature Dew Point Pressure Wind Wind Speed Wind Gust Humidity Rainfall Rate (Hourly)
00:02 30.9 °F 30.4 °F 29.80 in Calm   -999.0 mph 98 % 0 in
00:17 30.6 °F 30.1 °F 29.80 in Calm   -999.0 mph 98 % 0 in
00:32 30.2 °F 29.7 °F 29.81 in Calm   -999.0 mph 98 % 0 in
00:47 29.7 °F 29.2 °F 29.80 in Calm   -999.0 mph 98 % 0 in
01:02 29.3 °F 28.6 °F 29.81 in Calm   -999.0 mph 97 % 0 in
01:18 29.1 °F 28.4 °F 29.81 in Calm   -999.0 mph 97 % 0 in
01:33 29.7 °F 29.2 °F 29.81 in Calm   -999.0 mph 98 % 0 in
01:48 30.2 °F 29.7 °F 29.80 in Calm   -999.0 mph 98 % 0 in
02:03 30.4 °F 29.9 °F 29.80 in Calm   -999.0 mph 98 % 0 in
02:18 30.4 °F 29.9 °F 29.81 in Calm   -999.0 mph 98 % 0 in
02:34 30.7 °F 30.2 °F 29.82 in Calm   -999.0 mph 98 % 0 in
02:49 30.7 °F 30.2 °F 29.82 in Calm   -999.0 mph 98 % 0 in
03:05 30.9 °F 30.4 °F 29.81 in Calm   -999.0 mph 98 % 0 in
03:20 31.3 °F 30.8 °F 29.82 in Calm   -999.0 mph 98 % 0 in
03:35 31.6 °F 31.4 °F 29.82 in Calm   -999.0 mph 99 % 0 in
03:50 31.8 °F 31.6 °F 29.82 in Calm   -999.0 mph 99 % 0 in
04:06 31.8 °F 31.6 °F 29.83 in Calm   -999.0 mph 99 % 0 in
04:21 31.8 °F 31.6 °F 29.83 in Calm   -999.0 mph 99 % 0 in
04:36 31.6 °F 31.4 °F 29.83 in Calm   -999.0 mph 99 % 0 in
04:51 31.5 °F 31.3 °F 29.84 in Calm   -999.0 mph 99 % 0 in
05:06 31.5 °F 31.3 °F 29.85 in Calm   -999.0 mph 99 % 0 in
05:22 31.5 °F 31.0 °F 29.86 in Calm   -999.0 mph 98 % 0 in
05:37 31.5 °F 31.0 °F 29.85 in Calm   -999.0 mph 98 % 0 in
05:53 31.5 °F 31.0 °F 29.86 in Calm   -999.0 mph 98 % 0 in
06:08 31.5 °F 31.0 °F 29.86 in Calm   -999.0 mph 98 % 0 in
06:23 31.5 °F 31.0 °F 29.86 in Calm   -999.0 mph 98 % 0 in
06:38 31.3 °F 30.8 °F 29.86 in Calm   -999.0 mph 98 % 0 in
06:53 31.5 °F 31.0 °F 29.87 in Calm   -999.0 mph 98 % 0 in
07:09 31.5 °F 31.0 °F 29.88 in Calm   -999.0 mph 98 % 0 in
07:24 31.6 °F 30.8 °F 29.88 in Calm   -999.0 mph 97 % 0 in
07:39 31.8 °F 31.0 °F 29.89 in Calm   -999.0 mph 97 % 0 in
07:54 32.2 °F 31.4 °F 29.89 in Calm   -999.0 mph 97 % 0 in
08:09 33.1 °F 32.3 °F 29.90 in Calm   -999.0 mph 97 % 0 in
08:25 33.3 °F 32.3 °F 29.91 in Calm   -999.0 mph 96 % 0 in
08:40 33.8 °F 32.5 °F 29.91 in Calm   -999.0 mph 95 % 0 in
08:55 33.6 °F 31.5 °F 29.92 in Calm   -999.0 mph 92 % 0 in
09:10 34.3 °F 32.2 °F 29.93 in Calm   -999.0 mph 92 % 0 in
09:25 34.7 °F 32.3 °F 29.93 in Calm   -999.0 mph 91 % 0 in
09:41 35.2 °F 32.6 °F 29.94 in Calm   -999.0 mph 90 % 0 in
09:56 35.6 °F 33.0 °F 29.95 in Calm   -999.0 mph 90 % 0 in
10:11 36.5 °F 33.3 °F 29.95 in Calm   -999.0 mph 88 % 0 in
10:27 36.3 °F 32.8 °F 29.96 in Calm   -999.0 mph 87 % 0 in
10:42 37.6 °F 33.5 °F 29.97 in Calm   -999.0 mph 85 % 0 in
10:57 37.4 °F 33.9 °F 29.97 in Calm   -999.0 mph 87 % 0 in
11:13 38.1 °F 34.3 °F 29.97 in Calm   -999.0 mph 86 % 0 in
11:28 39.2 °F 35.1 °F 29.97 in Calm   -999.0 mph 85 % 0 in
11:44 38.5 °F 34.7 °F 29.97 in Calm   -999.0 mph 86 % 0 in
11:59 39.2 °F 35.1 °F 29.97 in WSW 1.7 mph -999.0 mph 85 % 0 in
12:14 38.8 °F 34.7 °F 29.97 in NNW 3.2 mph -999.0 mph 85 % 0 in
12:29 38.8 °F 35.3 °F 29.97 in West 2.7 mph -999.0 mph 87 % 0 in
12:44 38.5 °F 35.0 °F 29.97 in NW 3.7 mph -999.0 mph 87 % 0 in
13:00 38.8 °F 35.3 °F 29.97 in WNW 4.2 mph -999.0 mph 87 % 0 in
13:15 37.8 °F 34.9 °F 29.97 in NNW 4.2 mph -999.0 mph 89 % 0 in
13:30 38.1 °F 35.1 °F 29.99 in NW 5.8 mph -999.0 mph 89 % 0 in
13:45 39.7 °F 36.1 °F 29.99 in West 1.7 mph -999.0 mph 87 % 0 in
14:00 37.8 °F 35.4 °F 29.99 in WSW 1.1 mph -999.0 mph 91 % 0 in
14:16 37.2 °F 34.8 °F 29.99 in WNW 1.7 mph -999.0 mph 91 % 0 in
14:32 37.6 °F 35.2 °F 29.99 in WNW 2.7 mph -999.0 mph 91 % 0 in
14:47 37.8 °F 35.4 °F 29.99 in NW 5.8 mph -999.0 mph 91 % 0 in
15:02 38.7 °F 35.7 °F 29.99 in South 1.7 mph -999.0 mph 89 % 0 in
15:18 38.1 °F 35.1 °F 30.00 in West 2.2 mph -999.0 mph 89 % 0 in
15:33 37.4 °F 35.0 °F 30.00 in SSW 2.2 mph -999.0 mph 91 % 0 in
15:48 37.2 °F 34.8 °F 30.00 in SW 1.7 mph -999.0 mph 91 % 0 in
16:04 37.9 °F 34.9 °F 30.00 in SSE 1.7 mph -999.0 mph 89 % 0 in
16:20 37.4 °F 34.5 °F 30.00 in Calm   -999.0 mph 89 % 0 in
16:35 37.2 °F 34.5 °F 30.01 in NW 4.7 mph -999.0 mph 90 % 0 in
16:50 36.7 °F 34.0 °F 30.01 in West 1.7 mph -999.0 mph 90 % 0 in
17:05 35.4 °F 33.3 °F 30.01 in Calm   -999.0 mph 92 % 0 in
17:20 34.7 °F 33.2 °F 30.03 in SSW 1.7 mph -999.0 mph 94 % 0 in
17:36 34.3 °F 33.0 °F 30.02 in Calm   -999.0 mph 95 % 0 in
17:51 33.6 °F 32.3 °F 30.03 in South 1.7 mph -999.0 mph 95 % 0 in
18:06 33.1 °F 31.8 °F 30.04 in Calm   -999.0 mph 95 % 0 in
18:21 32.9 °F 32.1 °F 30.05 in Calm   -999.0 mph 97 % 0 in
18:36 32.7 °F 31.9 °F 30.05 in Calm   -999.0 mph 97 % 0 in
18:52 32.4 °F 31.6 °F 30.05 in Calm   -999.0 mph 97 % 0 in
19:07 32.4 °F 31.9 °F 30.07 in Calm   -999.0 mph 98 % 0 in
19:22 32.4 °F 31.9 °F 30.07 in Calm   -999.0 mph 98 % 0 in
19:37 32.9 °F 32.4 °F 30.07 in Calm   -999.0 mph 98 % 0 in
19:52 32.9 °F 32.4 °F 30.08 in Calm   -999.0 mph 98 % 0 in
20:08 33.1 °F 32.8 °F 30.09 in Calm   -999.0 mph 99 % 0 in
20:23 33.3 °F 33.0 °F 30.10 in Calm   -999.0 mph 99 % 0 in
20:38 33.6 °F 33.3 °F 30.10 in Calm   -999.0 mph 99 % 0 in
20:53 33.8 °F 33.5 °F 30.10 in Calm   -999.0 mph 99 % 0 in
21:08 33.8 °F 33.5 °F 30.10 in Calm   -999.0 mph 99 % 0 in
21:24 34.0 °F 33.7 °F 30.11 in Calm   -999.0 mph 99 % 0 in
21:39 33.8 °F 33.5 °F 30.11 in Calm   -999.0 mph 99 % 0 in
21:54 33.8 °F 33.5 °F 30.12 in Calm   -999.0 mph 99 % 0 in
22:09 34.0 °F 33.7 °F 30.12 in Calm   -999.0 mph 99 % 0 in
22:25 34.0 °F 33.7 °F 30.12 in Calm   -999.0 mph 99 % 0 in
22:40 34.0 °F 33.7 °F 30.12 in Calm   -999.0 mph 99 % 0 in
22:55 34.2 °F 33.9 °F 30.13 in Calm   -999.0 mph 99 % 0 in
23:10 34.2 °F 33.9 °F 30.13 in Calm   -999.0 mph 99 % 0 in
23:25 34.2 °F 33.9 °F 30.13 in Calm   -999.0 mph 99 % 0 in
23:41 34.2 °F 33.9 °F 30.13 in Calm   -999.0 mph 99 % 0 in
23:56 34.9 °F 34.6 °F 30.13 in Calm   -999.0 mph 99 % 0 in
Big Bear CA Weather
Compliments of Weather Underground - 1.5 mb